sensor_id;sensor_type;location;lat;lon;timestamp;temperature;humidity
39095;DHT22;24840;47.508;19.376;2023-05-07T00:00:01;12.50;99.90
39095;DHT22;24840;47.508;19.376;2023-05-07T00:02:26;12.40;99.90
39095;DHT22;24840;47.508;19.376;2023-05-07T00:05:17;12.50;99.90
39095;DHT22;24840;47.508;19.376;2023-05-07T00:07:43;12.40;99.90
39095;DHT22;24840;47.508;19.376;2023-05-07T00:10:10;12.30;99.90
39095;DHT22;24840;47.508;19.376;2023-05-07T00:12:37;12.20;99.90
39095;DHT22;24840;47.508;19.376;2023-05-07T00:15:04;12.20;99.90
39095;DHT22;24840;47.508;19.376;2023-05-07T00:17:30;12.30;99.90
39095;DHT22;24840;47.508;19.376;2023-05-07T00:19:56;12.30;99.90
39095;DHT22;24840;47.508;19.376;2023-05-07T00:22:21;12.30;99.90
39095;DHT22;24840;47.508;19.376;2023-05-07T00:24:47;12.30;99.90
39095;DHT22;24840;47.508;19.376;2023-05-07T00:27:13;12.30;99.90
39095;DHT22;24840;47.508;19.376;2023-05-07T00:29:39;12.30;99.90
39095;DHT22;24840;47.508;19.376;2023-05-07T00:32:05;12.30;99.90
39095;DHT22;24840;47.508;19.376;2023-05-07T00:34:30;12.20;99.90
39095;DHT22;24840;47.508;19.376;2023-05-07T00:36:56;12.30;99.90
39095;DHT22;24840;47.508;19.376;2023-05-07T00:39:22;12.30;99.90
39095;DHT22;24840;47.508;19.376;2023-05-07T00:41:47;12.30;99.90
39095;DHT22;24840;47.508;19.376;2023-05-07T00:44:13;12.20;99.90
39095;DHT22;24840;47.508;19.376;2023-05-07T00:46:40;12.30;99.90
39095;DHT22;24840;47.508;19.376;2023-05-07T00:49:06;12.30;99.90
39095;DHT22;24840;47.508;19.376;2023-05-07T00:51:32;12.30;99.90
39095;DHT22;24840;47.508;19.376;2023-05-07T00:54:01;12.30;99.90
39095;DHT22;24840;47.508;19.376;2023-05-07T00:56:28;12.20;99.90
39095;DHT22;24840;47.508;19.376;2023-05-07T00:58:53;12.20;99.90
39095;DHT22;24840;47.508;19.376;2023-05-07T01:01:20;12.10;99.90
39095;DHT22;24840;47.508;19.376;2023-05-07T01:03:45;12.10;99.90
39095;DHT22;24840;47.508;19.376;2023-05-07T01:06:12;12.10;99.90
39095;DHT22;24840;47.508;19.376;2023-05-07T01:08:39;12.10;99.90
39095;DHT22;24840;47.508;19.376;2023-05-07T01:11:06;12.00;99.90
39095;DHT22;24840;47.508;19.376;2023-05-07T01:13:33;12.00;99.90
39095;DHT22;24840;47.508;19.376;2023-05-07T01:15:59;12.00;99.90
39095;DHT22;24840;47.508;19.376;2023-05-07T01:18:26;12.20;99.90
39095;DHT22;24840;47.508;19.376;2023-05-07T01:20:52;12.10;99.90
39095;DHT22;24840;47.508;19.376;2023-05-07T01:23:18;12.10;99.90
39095;DHT22;24840;47.508;19.376;2023-05-07T01:25:53;12.00;99.90
39095;DHT22;24840;47.508;19.376;2023-05-07T01:28:19;12.00;99.90
39095;DHT22;24840;47.508;19.376;2023-05-07T01:30:50;12.00;99.90
39095;DHT22;24840;47.508;19.376;2023-05-07T01:33:19;12.00;99.90
39095;DHT22;24840;47.508;19.376;2023-05-07T01:35:50;12.00;99.90
39095;DHT22;24840;47.508;19.376;2023-05-07T01:38:18;12.00;99.90
39095;DHT22;24840;47.508;19.376;2023-05-07T01:40:44;12.10;99.90
39095;DHT22;24840;47.508;19.376;2023-05-07T01:43:10;12.00;99.90
39095;DHT22;24840;47.508;19.376;2023-05-07T01:45:36;11.90;99.90
39095;DHT22;24840;47.508;19.376;2023-05-07T01:48:03;11.80;99.90
39095;DHT22;24840;47.508;19.376;2023-05-07T01:50:30;11.80;99.90
39095;DHT22;24840;47.508;19.376;2023-05-07T01:52:56;11.80;99.90
39095;DHT22;24840;47.508;19.376;2023-05-07T01:55:22;11.80;99.90
39095;DHT22;24840;47.508;19.376;2023-05-07T01:57:48;11.70;99.90
39095;DHT22;24840;47.508;19.376;2023-05-07T02:00:14;11.70;99.90
39095;DHT22;24840;47.508;19.376;2023-05-07T02:02:39;11.70;99.90
39095;DHT22;24840;47.508;19.376;2023-05-07T02:05:05;11.80;99.90
39095;DHT22;24840;47.508;19.376;2023-05-07T02:07:31;11.80;99.90
39095;DHT22;24840;47.508;19.376;2023-05-07T02:09:57;11.70;99.90
39095;DHT22;24840;47.508;19.376;2023-05-07T02:12:23;11.70;99.90
39095;DHT22;24840;47.508;19.376;2023-05-07T02:14:49;11.60;99.90
39095;DHT22;24840;47.508;19.376;2023-05-07T02:17:14;11.60;99.90
39095;DHT22;24840;47.508;19.376;2023-05-07T02:19:40;11.50;99.90
39095;DHT22;24840;47.508;19.376;2023-05-07T02:22:07;11.40;99.90
39095;DHT22;24840;47.508;19.376;2023-05-07T02:24:32;11.40;99.90
39095;DHT22;24840;47.508;19.376;2023-05-07T02:26:58;11.40;99.90
39095;DHT22;24840;47.508;19.376;2023-05-07T02:29:24;11.40;99.90
39095;DHT22;24840;47.508;19.376;2023-05-07T02:31:49;11.30;99.90
39095;DHT22;24840;47.508;19.376;2023-05-07T02:34:18;11.20;99.90
39095;DHT22;24840;47.508;19.376;2023-05-07T02:36:45;11.20;99.90
39095;DHT22;24840;47.508;19.376;2023-05-07T02:39:11;11.20;99.90
39095;DHT22;24840;47.508;19.376;2023-05-07T02:41:37;11.20;99.90
39095;DHT22;24840;47.508;19.376;2023-05-07T02:44:03;11.10;99.90
39095;DHT22;24840;47.508;19.376;2023-05-07T02:46:29;11.10;99.90
39095;DHT22;24840;47.508;19.376;2023-05-07T02:48:55;10.90;99.90
39095;DHT22;24840;47.508;19.376;2023-05-07T02:51:21;10.90;99.90
39095;DHT22;24840;47.508;19.376;2023-05-07T02:53:47;10.90;99.90
39095;DHT22;24840;47.508;19.376;2023-05-07T02:56:13;10.80;99.90
39095;DHT22;24840;47.508;19.376;2023-05-07T02:58:39;10.80;99.90
39095;DHT22;24840;47.508;19.376;2023-05-07T03:01:05;10.80;99.90
39095;DHT22;24840;47.508;19.376;2023-05-07T03:03:31;10.80;99.90
39095;DHT22;24840;47.508;19.376;2023-05-07T03:05:57;10.80;99.90
39095;DHT22;24840;47.508;19.376;2023-05-07T03:08:23;10.70;99.90
39095;DHT22;24840;47.508;19.376;2023-05-07T03:10:49;10.70;99.90
39095;DHT22;24840;47.508;19.376;2023-05-07T03:13:15;10.70;99.90
39095;DHT22;24840;47.508;19.376;2023-05-07T03:15:40;10.70;99.90
39095;DHT22;24840;47.508;19.376;2023-05-07T03:18:06;10.70;99.90
39095;DHT22;24840;47.508;19.376;2023-05-07T03:20:32;10.70;99.90
39095;DHT22;24840;47.508;19.376;2023-05-07T03:22:57;10.60;99.90
39095;DHT22;24840;47.508;19.376;2023-05-07T03:25:23;10.60;99.90
39095;DHT22;24840;47.508;19.376;2023-05-07T03:27:49;10.50;99.90
39095;DHT22;24840;47.508;19.376;2023-05-07T03:30:15;10.50;99.90
39095;DHT22;24840;47.508;19.376;2023-05-07T03:32:40;10.60;99.90
39095;DHT22;24840;47.508;19.376;2023-05-07T03:35:06;10.60;99.90
39095;DHT22;24840;47.508;19.376;2023-05-07T03:37:33;10.50;99.90
39095;DHT22;24840;47.508;19.376;2023-05-07T03:39:58;10.50;99.90
39095;DHT22;24840;47.508;19.376;2023-05-07T03:42:24;10.30;99.90
39095;DHT22;24840;47.508;19.376;2023-05-07T03:44:50;10.30;99.90
39095;DHT22;24840;47.508;19.376;2023-05-07T03:47:16;10.40;99.90
39095;DHT22;24840;47.508;19.376;2023-05-07T03:49:41;10.50;99.90
39095;DHT22;24840;47.508;19.376;2023-05-07T03:52:07;10.50;99.90
39095;DHT22;24840;47.508;19.376;2023-05-07T03:54:33;10.40;99.90
39095;DHT22;24840;47.508;19.376;2023-05-07T03:56:58;10.40;99.90
39095;DHT22;24840;47.508;19.376;2023-05-07T03:59:24;10.50;99.90
39095;DHT22;24840;47.508;19.376;2023-05-07T04:01:50;10.50;99.90
39095;DHT22;24840;47.508;19.376;2023-05-07T04:04:16;10.60;99.90
39095;DHT22;24840;47.508;19.376;2023-05-07T04:06:42;10.40;99.90
39095;DHT22;24840;47.508;19.376;2023-05-07T04:09:07;10.50;99.90
39095;DHT22;24840;47.508;19.376;2023-05-07T04:11:34;10.50;99.90
39095;DHT22;24840;47.508;19.376;2023-05-07T04:14:00;10.60;99.90
39095;DHT22;24840;47.508;19.376;2023-05-07T04:16:25;10.70;99.90
39095;DHT22;24840;47.508;19.376;2023-05-07T04:18:51;10.70;99.90
39095;DHT22;24840;47.508;19.376;2023-05-07T04:21:18;10.80;99.90
39095;DHT22;24840;47.508;19.376;2023-05-07T04:23:45;10.70;99.90
39095;DHT22;24840;47.508;19.376;2023-05-07T04:26:11;10.60;99.90
39095;DHT22;24840;47.508;19.376;2023-05-07T04:28:36;10.60;99.90
39095;DHT22;24840;47.508;19.376;2023-05-07T04:31:02;10.80;99.90
39095;DHT22;24840;47.508;19.376;2023-05-07T04:33:28;10.80;99.90
39095;DHT22;24840;47.508;19.376;2023-05-07T04:35:53;11.00;99.90
39095;DHT22;24840;47.508;19.376;2023-05-07T04:38:19;11.00;99.90
39095;DHT22;24840;47.508;19.376;2023-05-07T04:40:45;11.10;99.90
39095;DHT22;24840;47.508;19.376;2023-05-07T04:43:12;11.10;99.90
39095;DHT22;24840;47.508;19.376;2023-05-07T04:45:38;11.20;99.90
39095;DHT22;24840;47.508;19.376;2023-05-07T04:48:08;11.20;99.90
39095;DHT22;24840;47.508;19.376;2023-05-07T04:50:34;11.20;99.90
39095;DHT22;24840;47.508;19.376;2023-05-07T04:53:00;11.30;99.90
39095;DHT22;24840;47.508;19.376;2023-05-07T04:55:27;11.40;99.90
39095;DHT22;24840;47.508;19.376;2023-05-07T04:57:53;11.50;99.90
39095;DHT22;24840;47.508;19.376;2023-05-07T05:00:19;11.60;99.90
39095;DHT22;24840;47.508;19.376;2023-05-07T05:02:45;11.80;99.90
39095;DHT22;24840;47.508;19.376;2023-05-07T05:05:11;11.90;99.90
39095;DHT22;24840;47.508;19.376;2023-05-07T05:07:37;12.00;99.90
39095;DHT22;24840;47.508;19.376;2023-05-07T05:10:04;12.10;99.90
39095;DHT22;24840;47.508;19.376;2023-05-07T05:12:31;12.20;99.90
39095;DHT22;24840;47.508;19.376;2023-05-07T05:14:57;12.50;99.90
39095;DHT22;24840;47.508;19.376;2023-05-07T05:17:23;12.70;99.90
39095;DHT22;24840;47.508;19.376;2023-05-07T05:19:48;12.80;99.90
39095;DHT22;24840;47.508;19.376;2023-05-07T05:22:14;12.90;99.90
39095;DHT22;24840;47.508;19.376;2023-05-07T05:24:40;13.00;99.90
39095;DHT22;24840;47.508;19.376;2023-05-07T05:27:06;13.10;99.90
39095;DHT22;24840;47.508;19.376;2023-05-07T05:29:31;13.20;99.90
39095;DHT22;24840;47.508;19.376;2023-05-07T05:31:57;13.30;99.90
39095;DHT22;24840;47.508;19.376;2023-05-07T05:34:23;13.50;99.90
39095;DHT22;24840;47.508;19.376;2023-05-07T05:36:49;13.50;99.90
39095;DHT22;24840;47.508;19.376;2023-05-07T05:39:14;13.70;99.90
39095;DHT22;24840;47.508;19.376;2023-05-07T05:41:40;13.70;99.90
39095;DHT22;24840;47.508;19.376;2023-05-07T05:44:06;13.80;99.90
39095;DHT22;24840;47.508;19.376;2023-05-07T05:46:32;14.00;99.90
39095;DHT22;24840;47.508;19.376;2023-05-07T05:48:58;14.00;99.90
39095;DHT22;24840;47.508;19.376;2023-05-07T05:51:23;14.10;99.90
39095;DHT22;24840;47.508;19.376;2023-05-07T05:53:49;14.10;99.90
39095;DHT22;24840;47.508;19.376;2023-05-07T05:56:16;14.40;99.90
39095;DHT22;24840;47.508;19.376;2023-05-07T05:58:41;14.70;99.90
39095;DHT22;24840;47.508;19.376;2023-05-07T06:01:07;14.90;99.90
39095;DHT22;24840;47.508;19.376;2023-05-07T06:03:33;15.20;99.90
39095;DHT22;24840;47.508;19.376;2023-05-07T06:05:59;15.60;99.90
39095;DHT22;24840;47.508;19.376;2023-05-07T06:08:28;15.90;99.90
39095;DHT22;24840;47.508;19.376;2023-05-07T06:10:54;16.20;99.90
39095;DHT22;24840;47.508;19.376;2023-05-07T06:13:20;16.50;99.90
39095;DHT22;24840;47.508;19.376;2023-05-07T06:15:46;16.70;99.90
39095;DHT22;24840;47.508;19.376;2023-05-07T06:18:11;17.00;99.90
39095;DHT22;24840;47.508;19.376;2023-05-07T06:20:37;17.30;99.90
39095;DHT22;24840;47.508;19.376;2023-05-07T06:23:03;17.50;99.90
39095;DHT22;24840;47.508;19.376;2023-05-07T06:25:28;17.50;99.90
39095;DHT22;24840;47.508;19.376;2023-05-07T06:27:54;17.60;99.90
39095;DHT22;24840;47.508;19.376;2023-05-07T06:30:20;17.80;99.90
39095;DHT22;24840;47.508;19.376;2023-05-07T06:32:46;18.20;99.90
39095;DHT22;24840;47.508;19.376;2023-05-07T06:35:11;18.50;99.90
39095;DHT22;24840;47.508;19.376;2023-05-07T06:37:40;18.60;99.90
39095;DHT22;24840;47.508;19.376;2023-05-07T06:40:08;18.70;99.90
39095;DHT22;24840;47.508;19.376;2023-05-07T06:42:35;19.00;99.90
39095;DHT22;24840;47.508;19.376;2023-05-07T06:45:01;19.10;99.90
39095;DHT22;24840;47.508;19.376;2023-05-07T06:47:28;19.50;99.90
39095;DHT22;24840;47.508;19.376;2023-05-07T06:49:54;19.40;99.90
39095;DHT22;24840;47.508;19.376;2023-05-07T06:52:19;19.70;99.90
39095;DHT22;24840;47.508;19.376;2023-05-07T06:54:45;19.80;99.90
39095;DHT22;24840;47.508;19.376;2023-05-07T06:57:11;19.90;99.90
39095;DHT22;24840;47.508;19.376;2023-05-07T06:59:36;20.10;99.90
39095;DHT22;24840;47.508;19.376;2023-05-07T07:02:02;20.30;99.90
39095;DHT22;24840;47.508;19.376;2023-05-07T07:04:28;20.60;99.90
39095;DHT22;24840;47.508;19.376;2023-05-07T07:06:54;20.60;99.90
39095;DHT22;24840;47.508;19.376;2023-05-07T07:09:20;20.70;99.90
39095;DHT22;24840;47.508;19.376;2023-05-07T07:11:46;20.50;99.90
39095;DHT22;24840;47.508;19.376;2023-05-07T07:14:11;20.70;99.90
39095;DHT22;24840;47.508;19.376;2023-05-07T07:16:37;21.00;99.90
39095;DHT22;24840;47.508;19.376;2023-05-07T07:19:03;21.40;99.90
39095;DHT22;24840;47.508;19.376;2023-05-07T07:21:28;21.30;99.20
39095;DHT22;24840;47.508;19.376;2023-05-07T07:23:55;21.00;98.10
39095;DHT22;24840;47.508;19.376;2023-05-07T07:26:21;20.60;99.90
39095;DHT22;24840;47.508;19.376;2023-05-07T07:28:46;20.20;96.10
39095;DHT22;24840;47.508;19.376;2023-05-07T07:31:12;20.00;96.30
39095;DHT22;24840;47.508;19.376;2023-05-07T07:33:39;20.00;98.70
39095;DHT22;24840;47.508;19.376;2023-05-07T07:36:05;20.30;99.60
39095;DHT22;24840;47.508;19.376;2023-05-07T07:38:31;21.00;99.90
39095;DHT22;24840;47.508;19.376;2023-05-07T07:40:57;21.20;97.60
39095;DHT22;24840;47.508;19.376;2023-05-07T07:43:23;21.30;98.60
39095;DHT22;24840;47.508;19.376;2023-05-07T07:45:49;21.30;97.20
39095;DHT22;24840;47.508;19.376;2023-05-07T07:48:15;21.30;95.90
39095;DHT22;24840;47.508;19.376;2023-05-07T07:50:40;21.40;96.60
39095;DHT22;24840;47.508;19.376;2023-05-07T07:53:06;22.20;95.30
39095;DHT22;24840;47.508;19.376;2023-05-07T07:55:32;22.50;96.20
39095;DHT22;24840;47.508;19.376;2023-05-07T07:57:58;22.90;93.80
39095;DHT22;24840;47.508;19.376;2023-05-07T08:00:23;22.80;92.10
39095;DHT22;24840;47.508;19.376;2023-05-07T08:02:49;23.20;96.20
39095;DHT22;24840;47.508;19.376;2023-05-07T08:05:15;24.10;93.30
39095;DHT22;24840;47.508;19.376;2023-05-07T08:07:41;24.30;91.80
39095;DHT22;24840;47.508;19.376;2023-05-07T08:10:07;24.40;90.60
39095;DHT22;24840;47.508;19.376;2023-05-07T08:12:33;24.30;90.90
39095;DHT22;24840;47.508;19.376;2023-05-07T08:14:58;24.10;90.70
39095;DHT22;24840;47.508;19.376;2023-05-07T08:17:24;24.20;92.20
39095;DHT22;24840;47.508;19.376;2023-05-07T08:19:50;23.50;93.20
39095;DHT22;24840;47.508;19.376;2023-05-07T08:22:16;22.70;92.00
39095;DHT22;24840;47.508;19.376;2023-05-07T08:24:43;22.10;92.30
39095;DHT22;24840;47.508;19.376;2023-05-07T08:27:09;21.90;92.40
39095;DHT22;24840;47.508;19.376;2023-05-07T08:29:34;21.80;93.50
39095;DHT22;24840;47.508;19.376;2023-05-07T08:32:01;21.80;92.50
39095;DHT22;24840;47.508;19.376;2023-05-07T08:34:26;21.60;92.70
39095;DHT22;24840;47.508;19.376;2023-05-07T08:36:52;21.40;92.10
39095;DHT22;24840;47.508;19.376;2023-05-07T08:39:18;21.50;92.90
39095;DHT22;24840;47.508;19.376;2023-05-07T08:41:45;21.70;94.30
39095;DHT22;24840;47.508;19.376;2023-05-07T08:44:13;21.80;92.50
39095;DHT22;24840;47.508;19.376;2023-05-07T08:46:41;21.70;92.00
39095;DHT22;24840;47.508;19.376;2023-05-07T08:49:07;21.50;92.10
39095;DHT22;24840;47.508;19.376;2023-05-07T08:51:33;21.40;92.40
39095;DHT22;24840;47.508;19.376;2023-05-07T08:53:59;21.40;93.10
39095;DHT22;24840;47.508;19.376;2023-05-07T08:56:26;21.50;94.40
39095;DHT22;24840;47.508;19.376;2023-05-07T08:58:52;21.70;93.30
39095;DHT22;24840;47.508;19.376;2023-05-07T09:01:22;21.40;94.30
39095;DHT22;24840;47.508;19.376;2023-05-07T09:03:49;21.50;94.00
39095;DHT22;24840;47.508;19.376;2023-05-07T09:06:16;21.60;93.80
39095;DHT22;24840;47.508;19.376;2023-05-07T09:08:52;21.80;93.70
39095;DHT22;24840;47.508;19.376;2023-05-07T09:11:23;21.80;94.10
39095;DHT22;24840;47.508;19.376;2023-05-07T09:13:54;21.90;95.30
39095;DHT22;24840;47.508;19.376;2023-05-07T09:16:21;21.80;94.00
39095;DHT22;24840;47.508;19.376;2023-05-07T09:18:51;21.90;94.30
39095;DHT22;24840;47.508;19.376;2023-05-07T09:21:18;22.20;93.70
39095;DHT22;24840;47.508;19.376;2023-05-07T09:23:44;22.40;93.30
39095;DHT22;24840;47.508;19.376;2023-05-07T09:26:10;22.00;92.60
39095;DHT22;24840;47.508;19.376;2023-05-07T09:28:41;22.00;92.50
39095;DHT22;24840;47.508;19.376;2023-05-07T09:31:10;21.90;93.30
39095;DHT22;24840;47.508;19.376;2023-05-07T09:33:37;22.10;93.40
39095;DHT22;24840;47.508;19.376;2023-05-07T09:36:04;22.00;93.00
39095;DHT22;24840;47.508;19.376;2023-05-07T09:38:31;21.80;91.90
39095;DHT22;24840;47.508;19.376;2023-05-07T09:41:08;21.90;91.80
39095;DHT22;24840;47.508;19.376;2023-05-07T09:43:37;22.60;91.10
39095;DHT22;24840;47.508;19.376;2023-05-07T09:46:13;23.50;90.10
39095;DHT22;24840;47.508;19.376;2023-05-07T09:48:41;24.60;91.50
39095;DHT22;24840;47.508;19.376;2023-05-07T09:53:48;26.40;83.10
39095;DHT22;24840;47.508;19.376;2023-05-07T09:56:14;26.80;84.10
39095;DHT22;24840;47.508;19.376;2023-05-07T09:58:43;27.00;80.20
39095;DHT22;24840;47.508;19.376;2023-05-07T10:01:11;25.90;80.70
39095;DHT22;24840;47.508;19.376;2023-05-07T10:03:40;24.70;80.90
39095;DHT22;24840;47.508;19.376;2023-05-07T10:06:09;23.60;84.50
39095;DHT22;24840;47.508;19.376;2023-05-07T10:08:36;23.20;83.50
39095;DHT22;24840;47.508;19.376;2023-05-07T10:11:03;23.30;85.80
39095;DHT22;24840;47.508;19.376;2023-05-07T10:13:28;23.30;86.60
39095;DHT22;24840;47.508;19.376;2023-05-07T10:15:55;23.40;90.00
39095;DHT22;24840;47.508;19.376;2023-05-07T10:18:22;23.80;91.00
39095;DHT22;24840;47.508;19.376;2023-05-07T10:20:51;23.80;89.80
39095;DHT22;24840;47.508;19.376;2023-05-07T10:23:22;23.50;87.10
39095;DHT22;24840;47.508;19.376;2023-05-07T10:25:48;23.10;86.60
39095;DHT22;24840;47.508;19.376;2023-05-07T10:28:15;22.90;89.30
39095;DHT22;24840;47.508;19.376;2023-05-07T10:33:27;22.50;90.00
39095;DHT22;24840;47.508;19.376;2023-05-07T10:36:01;22.40;90.30
39095;DHT22;24840;47.508;19.376;2023-05-07T10:38:30;22.40;91.00
39095;DHT22;24840;47.508;19.376;2023-05-07T10:40:56;22.20;91.30
39095;DHT22;24840;47.508;19.376;2023-05-07T10:43:22;22.20;92.20
39095;DHT22;24840;47.508;19.376;2023-05-07T10:46:14;22.10;92.60
39095;DHT22;24840;47.508;19.376;2023-05-07T10:51:34;21.70;92.10
39095;DHT22;24840;47.508;19.376;2023-05-07T10:56:35;21.70;91.50
39095;DHT22;24840;47.508;19.376;2023-05-07T11:02:00;21.80;93.60
39095;DHT22;24840;47.508;19.376;2023-05-07T11:04:31;21.80;89.90
39095;DHT22;24840;47.508;19.376;2023-05-07T11:15:10;21.70;91.00
39095;DHT22;24840;47.508;19.376;2023-05-07T11:17:58;21.80;91.10
39095;DHT22;24840;47.508;19.376;2023-05-07T11:20:53;21.70;89.70
39095;DHT22;24840;47.508;19.376;2023-05-07T11:26:08;21.50;91.30
39095;DHT22;24840;47.508;19.376;2023-05-07T11:28:41;21.50;93.10
39095;DHT22;24840;47.508;19.376;2023-05-07T11:31:08;21.40;91.20
39095;DHT22;24840;47.508;19.376;2023-05-07T11:33:34;21.30;94.20
39095;DHT22;24840;47.508;19.376;2023-05-07T11:36:03;21.40;93.20
39095;DHT22;24840;47.508;19.376;2023-05-07T11:38:30;21.40;92.60
39095;DHT22;24840;47.508;19.376;2023-05-07T11:40:57;21.50;92.70
39095;DHT22;24840;47.508;19.376;2023-05-07T11:43:26;21.80;95.00
39095;DHT22;24840;47.508;19.376;2023-05-07T11:45:52;22.90;96.80
39095;DHT22;24840;47.508;19.376;2023-05-07T11:48:18;25.10;94.10
39095;DHT22;24840;47.508;19.376;2023-05-07T11:50:59;25.40;80.20
39095;DHT22;24840;47.508;19.376;2023-05-07T11:53:26;25.00;80.60
39095;DHT22;24840;47.508;19.376;2023-05-07T11:55:54;26.00;84.90
39095;DHT22;24840;47.508;19.376;2023-05-07T11:58:22;26.00;80.80
39095;DHT22;24840;47.508;19.376;2023-05-07T12:00:52;26.30;74.50
39095;DHT22;24840;47.508;19.376;2023-05-07T12:03:18;26.10;75.30
39095;DHT22;24840;47.508;19.376;2023-05-07T12:05:45;26.80;82.80
39095;DHT22;24840;47.508;19.376;2023-05-07T12:08:18;25.90;73.90
39095;DHT22;24840;47.508;19.376;2023-05-07T12:10:45;25.30;77.70
39095;DHT22;24840;47.508;19.376;2023-05-07T12:13:21;24.50;78.00
39095;DHT22;24840;47.508;19.376;2023-05-07T12:15:51;23.70;80.20
39095;DHT22;24840;47.508;19.376;2023-05-07T12:18:17;23.90;83.50
39095;DHT22;24840;47.508;19.376;2023-05-07T12:20:43;23.80;87.10
39095;DHT22;24840;47.508;19.376;2023-05-07T12:23:09;23.60;86.10
39095;DHT22;24840;47.508;19.376;2023-05-07T12:25:39;23.30;88.20
39095;DHT22;24840;47.508;19.376;2023-05-07T12:28:07;23.00;87.60
39095;DHT22;24840;47.508;19.376;2023-05-07T12:30:37;23.00;86.40
39095;DHT22;24840;47.508;19.376;2023-05-07T12:33:03;22.50;85.90
39095;DHT22;24840;47.508;19.376;2023-05-07T12:35:36;22.20;89.60
39095;DHT22;24840;47.508;19.376;2023-05-07T12:38:02;22.00;90.30
39095;DHT22;24840;47.508;19.376;2023-05-07T12:40:44;21.70;93.00
39095;DHT22;24840;47.508;19.376;2023-05-07T12:43:21;21.40;97.00
39095;DHT22;24840;47.508;19.376;2023-05-07T12:45:51;21.20;98.40
39095;DHT22;24840;47.508;19.376;2023-05-07T12:48:17;21.00;99.70
39095;DHT22;24840;47.508;19.376;2023-05-07T12:50:44;20.90;99.90
39095;DHT22;24840;47.508;19.376;2023-05-07T12:53:11;20.80;99.90
39095;DHT22;24840;47.508;19.376;2023-05-07T12:55:42;20.80;99.90
39095;DHT22;24840;47.508;19.376;2023-05-07T12:58:08;21.00;99.90
39095;DHT22;24840;47.508;19.376;2023-05-07T13:00:39;21.70;99.90
39095;DHT22;24840;47.508;19.376;2023-05-07T13:03:06;23.20;99.90
39095;DHT22;24840;47.508;19.376;2023-05-07T13:05:32;23.90;99.90
39095;DHT22;24840;47.508;19.376;2023-05-07T13:07:58;24.60;99.90
39095;DHT22;24840;47.508;19.376;2023-05-07T13:10:24;25.30;99.90
39095;DHT22;24840;47.508;19.376;2023-05-07T13:12:51;25.30;90.40
39095;DHT22;24840;47.508;19.376;2023-05-07T13:15:17;25.30;88.30
39095;DHT22;24840;47.508;19.376;2023-05-07T13:17:43;25.70;95.00
39095;DHT22;24840;47.508;19.376;2023-05-07T13:20:10;25.60;94.60
39095;DHT22;24840;47.508;19.376;2023-05-07T13:22:37;26.00;93.00
39095;DHT22;24840;47.508;19.376;2023-05-07T13:25:02;26.40;90.40
39095;DHT22;24840;47.508;19.376;2023-05-07T13:27:28;26.60;90.80
39095;DHT22;24840;47.508;19.376;2023-05-07T13:29:56;26.70;92.60
39095;DHT22;24840;47.508;19.376;2023-05-07T13:32:22;24.90;91.40
39095;DHT22;24840;47.508;19.376;2023-05-07T13:34:48;23.80;91.70
39095;DHT22;24840;47.508;19.376;2023-05-07T13:37:13;23.20;94.20
39095;DHT22;24840;47.508;19.376;2023-05-07T13:39:39;23.90;96.00
39095;DHT22;24840;47.508;19.376;2023-05-07T13:42:06;23.90;96.00
39095;DHT22;24840;47.508;19.376;2023-05-07T13:44:32;24.30;95.30
39095;DHT22;24840;47.508;19.376;2023-05-07T13:46:57;23.60;94.20
39095;DHT22;24840;47.508;19.376;2023-05-07T13:49:23;23.40;96.40
39095;DHT22;24840;47.508;19.376;2023-05-07T13:51:49;23.70;95.40
39095;DHT22;24840;47.508;19.376;2023-05-07T13:54:15;24.60;95.50
39095;DHT22;24840;47.508;19.376;2023-05-07T13:56:41;25.10;93.10
39095;DHT22;24840;47.508;19.376;2023-05-07T13:59:07;25.00;88.80
39095;DHT22;24840;47.508;19.376;2023-05-07T14:01:33;24.80;84.00
39095;DHT22;24840;47.508;19.376;2023-05-07T14:03:58;25.00;89.00
39095;DHT22;24840;47.508;19.376;2023-05-07T14:06:25;26.10;89.30
39095;DHT22;24840;47.508;19.376;2023-05-07T14:08:51;25.40;80.80
39095;DHT22;24840;47.508;19.376;2023-05-07T14:11:17;25.50;85.30
39095;DHT22;24840;47.508;19.376;2023-05-07T14:13:43;25.60;83.90
39095;DHT22;24840;47.508;19.376;2023-05-07T14:16:08;26.50;90.90
39095;DHT22;24840;47.508;19.376;2023-05-07T14:18:34;25.70;86.00
39095;DHT22;24840;47.508;19.376;2023-05-07T14:21:02;25.60;81.40
39095;DHT22;24840;47.508;19.376;2023-05-07T14:23:28;25.50;82.50
39095;DHT22;24840;47.508;19.376;2023-05-07T14:25:54;25.60;86.00
39095;DHT22;24840;47.508;19.376;2023-05-07T14:28:20;26.00;84.20
39095;DHT22;24840;47.508;19.376;2023-05-07T14:30:46;26.00;87.90
39095;DHT22;24840;47.508;19.376;2023-05-07T14:33:12;26.30;80.00
39095;DHT22;24840;47.508;19.376;2023-05-07T14:35:38;26.20;76.80
39095;DHT22;24840;47.508;19.376;2023-05-07T14:38:03;25.50;76.80
39095;DHT22;24840;47.508;19.376;2023-05-07T14:40:29;25.50;80.30
39095;DHT22;24840;47.508;19.376;2023-05-07T14:42:55;25.50;79.50
39095;DHT22;24840;47.508;19.376;2023-05-07T14:45:22;25.70;82.20
39095;DHT22;24840;47.508;19.376;2023-05-07T14:47:48;25.70;79.60
39095;DHT22;24840;47.508;19.376;2023-05-07T14:50:15;25.50;77.00
39095;DHT22;24840;47.508;19.376;2023-05-07T14:52:40;25.80;76.20
39095;DHT22;24840;47.508;19.376;2023-05-07T14:55:06;25.90;78.20
39095;DHT22;24840;47.508;19.376;2023-05-07T14:57:32;26.10;80.50
39095;DHT22;24840;47.508;19.376;2023-05-07T15:00:03;25.40;72.10
39095;DHT22;24840;47.508;19.376;2023-05-07T15:02:30;25.50;78.50
39095;DHT22;24840;47.508;19.376;2023-05-07T15:04:56;24.90;72.70
39095;DHT22;24840;47.508;19.376;2023-05-07T15:07:22;24.80;78.80
39095;DHT22;24840;47.508;19.376;2023-05-07T15:09:47;25.00;79.80
39095;DHT22;24840;47.508;19.376;2023-05-07T15:12:13;25.10;77.90
39095;DHT22;24840;47.508;19.376;2023-05-07T15:14:39;25.00;78.30
39095;DHT22;24840;47.508;19.376;2023-05-07T15:17:05;24.90;78.60
39095;DHT22;24840;47.508;19.376;2023-05-07T15:19:31;24.40;74.00
39095;DHT22;24840;47.508;19.376;2023-05-07T15:21:59;24.30;78.20
39095;DHT22;24840;47.508;19.376;2023-05-07T15:24:28;24.50;80.70
39095;DHT22;24840;47.508;19.376;2023-05-07T15:26:54;24.40;80.20
39095;DHT22;24840;47.508;19.376;2023-05-07T15:29:19;24.00;78.50
39095;DHT22;24840;47.508;19.376;2023-05-07T15:31:46;24.00;79.80
39095;DHT22;24840;47.508;19.376;2023-05-07T15:34:12;24.40;83.50
39095;DHT22;24840;47.508;19.376;2023-05-07T15:36:37;24.20;76.40